createdAt,value
2019-01-13T00:01:19.975Z,46.50
2019-01-13T00:06:38.658Z,43.00
2019-01-13T00:11:57.219Z,47.00
2019-01-13T00:17:15.841Z,39.92
2019-01-13T00:22:35.731Z,38.63
2019-01-13T00:27:54.377Z,37.47
2019-01-13T00:33:12.943Z,43.35
2019-01-13T00:38:31.567Z,41.17
2019-01-13T00:43:50.460Z,36.17
2019-01-13T00:49:09.129Z,39.70
2019-01-13T00:54:27.834Z,41.17
2019-01-13T00:59:46.937Z,47.30
2019-01-13T01:05:08.595Z,45.03
2019-01-13T01:10:27.254Z,45.93
2019-01-13T01:15:45.893Z,40.80
2019-01-13T01:21:04.617Z,58.43
2019-01-13T01:26:24.784Z,49.83
2019-01-13T01:31:43.425Z,49.03
2019-01-13T01:37:01.988Z,47.10
2019-01-13T01:42:20.543Z,48.97
2019-01-13T01:47:39.195Z,66.87
2019-01-13T01:52:58.052Z,59.50
2019-01-13T01:58:16.697Z,56.70
2019-01-13T02:03:35.455Z,52.43
2019-01-13T02:08:55.380Z,60.17
2019-01-13T02:14:14.055Z,56.10
2019-01-13T02:19:32.733Z,58.30
2019-01-13T02:24:51.287Z,63.70
2019-01-13T02:30:13.132Z,66.07
2019-01-13T02:35:31.796Z,62.43
2019-01-13T02:40:50.459Z,56.83
2019-01-13T02:46:09.172Z,44.00
2019-01-13T02:51:28.454Z,43.50
2019-01-13T02:56:47.180Z,53.43
2019-01-13T03:02:06.686Z,49.40
2019-01-13T03:07:27.026Z,45.40
2019-01-13T03:12:46.174Z,41.73
2019-01-13T03:18:04.915Z,36.63
2019-01-13T03:23:23.744Z,27.07
2019-01-13T03:28:42.388Z,26.13
2019-01-13T03:34:01.042Z,20.00
2019-01-13T03:39:19.793Z,19.07
2019-01-13T03:44:38.506Z,15.47
2019-01-13T03:49:57.165Z,16.70
2019-01-13T03:55:17.033Z,13.80
2019-01-13T04:00:35.735Z,14.17
2019-01-13T04:05:54.434Z,19.67
2019-01-13T04:11:13.008Z,23.00
2019-01-13T04:16:31.701Z,26.87
2019-01-13T04:21:50.326Z,28.17
2019-01-13T04:27:09.030Z,36.53
2019-01-13T04:32:27.589Z,36.20
2019-01-13T04:37:46.203Z,29.93
2019-01-13T04:43:04.941Z,29.43
2019-01-13T04:48:23.832Z,35.87
2019-01-13T04:53:42.442Z,39.80
2019-01-13T04:59:01.600Z,42.40
2019-01-13T05:04:20.233Z,45.63
2019-01-13T05:09:38.835Z,39.90
2019-01-13T05:14:57.433Z,41.17
2019-01-13T05:20:21.163Z,47.05
2019-01-13T05:25:39.737Z,40.50
2019-01-13T05:30:58.387Z,38.13
2019-01-13T05:36:17.031Z,50.47
2019-01-13T05:41:37.496Z,44.30
2019-01-13T05:46:57.791Z,58.67
2019-01-13T05:52:18.670Z,41.80
2019-01-13T05:57:37.437Z,39.23
2019-01-13T06:02:58.202Z,34.27
2019-01-13T06:08:16.958Z,31.97
2019-01-13T06:13:37.039Z,27.50
2019-01-13T06:18:55.676Z,25.03
2019-01-13T06:24:15.688Z,17.63
2019-01-13T06:29:34.505Z,16.97
2019-01-13T06:34:53.672Z,13.83
2019-01-13T06:40:15.044Z,11.63
2019-01-13T06:45:34.101Z,10.07
2019-01-13T06:50:52.775Z,7.87
2019-01-13T06:56:11.509Z,7.50
2019-01-13T07:01:30.247Z,8.07
2019-01-13T07:06:48.890Z,7.78
2019-01-13T07:12:07.428Z,7.43
2019-01-13T07:17:27.333Z,6.53
2019-01-13T07:22:46.163Z,6.60
2019-01-13T07:28:04.870Z,5.87
2019-01-13T07:33:24.605Z,7.93
2019-01-13T07:38:43.250Z,6.60
2019-01-13T07:44:03.521Z,10.37
2019-01-13T07:49:22.141Z,12.60
2019-01-13T07:54:40.783Z,9.13
2019-01-13T07:59:59.422Z,9.20
2019-01-13T08:05:18.276Z,7.90
2019-01-13T08:10:38.483Z,9.65
2019-01-13T08:15:57.116Z,9.27
2019-01-13T08:21:15.760Z,8.07
2019-01-13T08:26:34.519Z,11.03
2019-01-13T08:31:53.272Z,9.77
2019-01-13T08:37:11.940Z,11.83
2019-01-13T08:42:30.612Z,13.40
2019-01-13T08:47:49.273Z,12.10
2019-01-13T08:53:07.968Z,19.07
2019-01-13T08:58:26.660Z,17.00
2019-01-13T09:03:45.325Z,16.70
2019-01-13T09:09:07.293Z,19.27
2019-01-13T09:14:26.011Z,19.20
2019-01-13T09:19:44.666Z,22.77
2019-01-13T09:25:03.300Z,19.00
2019-01-13T09:30:24.339Z,21.73
2019-01-13T09:35:43.235Z,26.47
2019-01-13T09:41:01.857Z,24.97
2019-01-13T09:46:20.549Z,28.73
2019-01-13T09:51:39.841Z,35.27
2019-01-13T09:56:58.534Z,37.37
2019-01-13T10:02:17.316Z,49.90
2019-01-13T10:07:36.148Z,43.47
2019-01-13T10:12:54.927Z,40.90
2019-01-13T10:18:13.591Z,46.63
2019-01-13T10:23:32.319Z,43.50
2019-01-13T10:28:51.035Z,54.30
2019-01-13T10:34:10.306Z,52.93
2019-01-13T10:39:29.175Z,52.47
2019-01-13T10:44:47.735Z,49.30
2019-01-13T10:50:09.271Z,43.87
2019-01-13T10:55:28.220Z,44.77
2019-01-13T11:00:47.170Z,40.17
2019-01-13T11:06:05.785Z,38.10
2019-01-13T11:11:24.407Z,35.33
2019-01-13T11:16:43.128Z,34.27
2019-01-13T11:22:01.822Z,32.57
2019-01-13T11:27:20.568Z,28.27
2019-01-13T11:32:39.165Z,28.40
2019-01-13T11:38:01.923Z,23.43
2019-01-13T11:43:20.703Z,25.30
2019-01-13T11:48:39.260Z,20.57
2019-01-13T11:53:57.885Z,19.60
2019-01-13T11:59:16.782Z,15.00
2019-01-13T12:04:35.432Z,14.43
2019-01-13T12:09:54.008Z,17.43
2019-01-13T12:15:14.772Z,16.93
2019-01-13T12:20:33.720Z,18.73
2019-01-13T12:25:53.026Z,16.13
2019-01-13T12:31:11.671Z,14.53
2019-01-13T12:36:30.291Z,14.27
2019-01-13T12:41:48.985Z,14.35
2019-01-13T12:47:07.695Z,16.90
2019-01-13T12:52:26.236Z,10.60
2019-01-13T12:57:45.050Z,12.98
2019-01-13T13:03:03.796Z,16.43
2019-01-13T13:08:22.414Z,10.80
2019-01-13T13:13:41.114Z,13.20
2019-01-13T13:18:59.963Z,12.40
2019-01-13T13:24:18.552Z,11.10
2019-01-13T13:29:37.181Z,12.73
2019-01-13T13:34:55.920Z,10.77
2019-01-13T13:40:17.355Z,12.40
2019-01-13T13:45:36.003Z,10.53
2019-01-13T13:50:54.561Z,13.90
2019-01-13T13:56:13.117Z,13.80
2019-01-13T14:01:31.680Z,14.60
2019-01-13T14:06:50.232Z,11.80
2019-01-13T14:12:08.858Z,12.37
2019-01-13T14:17:27.721Z,14.53
2019-01-13T14:22:46.343Z,15.03
2019-01-13T14:28:05.287Z,13.00
2019-01-13T14:33:24.062Z,18.30
2019-01-13T14:38:42.942Z,17.97
2019-01-13T14:44:01.639Z,16.97
2019-01-13T14:49:20.290Z,14.00
2019-01-13T14:54:38.815Z,13.07
2019-01-13T14:59:58.223Z,11.60
2019-01-13T15:05:16.929Z,12.33
2019-01-13T15:10:35.860Z,9.33
2019-01-13T15:15:54.451Z,11.77
2019-01-13T15:21:13.009Z,10.73
2019-01-13T15:26:32.130Z,11.57
2019-01-13T15:31:50.748Z,15.03
2019-01-13T15:37:09.493Z,18.10
2019-01-13T15:42:28.186Z,17.63
2019-01-13T15:47:48.043Z,19.63
2019-01-13T15:53:06.682Z,19.77
2019-01-13T15:58:25.248Z,27.40
2019-01-13T16:03:46.272Z,26.80
2019-01-13T16:09:08.436Z,31.53
2019-01-13T16:14:27.063Z,33.97
2019-01-13T16:19:45.720Z,30.67
2019-01-13T16:25:05.301Z,36.00
2019-01-13T16:30:29.119Z,25.47
2019-01-13T16:35:50.018Z,26.57
2019-01-13T16:41:10.721Z,25.60
2019-01-13T16:46:29.217Z,25.23
2019-01-13T16:57:43.218Z,22.07
2019-01-13T17:03:01.899Z,23.93
2019-01-13T17:14:15.992Z,28.27
2019-01-13T17:19:35.486Z,23.73
2019-01-13T17:24:54.216Z,29.60
2019-01-13T17:30:15.980Z,24.93
2019-01-13T17:35:34.683Z,23.73
2019-01-13T17:40:53.455Z,22.13
2019-01-13T17:46:12.076Z,18.77
2019-01-13T17:51:32.354Z,19.93
2019-01-13T17:56:52.287Z,19.50
2019-01-13T18:02:11.086Z,22.73
2019-01-13T18:07:29.742Z,23.65
2019-01-13T18:12:48.475Z,16.53
2019-01-13T18:18:07.106Z,14.37
2019-01-13T18:23:25.787Z,4.50
2019-01-13T18:28:44.425Z,5.87
2019-01-13T18:34:02.985Z,6.67
2019-01-13T18:39:21.606Z,10.70
2019-01-13T18:44:40.313Z,9.43
2019-01-13T18:50:00.531Z,3.35
2019-01-13T18:55:19.298Z,6.73
2019-01-13T19:00:37.971Z,9.33
2019-01-13T19:05:58.340Z,12.93
2019-01-13T19:11:18.892Z,9.03
2019-01-13T19:16:39.917Z,19.17
2019-01-13T19:21:58.696Z,16.13
2019-01-13T19:27:17.391Z,11.83
2019-01-13T19:32:36.189Z,8.98
2019-01-13T19:37:54.867Z,10.53
2019-01-13T19:43:13.940Z,10.43
2019-01-13T19:48:32.585Z,14.57
2019-01-13T19:53:51.576Z,13.90
2019-01-13T19:59:10.252Z,13.50
2019-01-13T20:04:28.878Z,17.17
2019-01-13T20:09:47.498Z,10.53
2019-01-13T20:15:09.035Z,19.90
2019-01-13T20:20:27.681Z,9.70
2019-01-13T20:25:46.246Z,14.33
2019-01-13T20:31:04.978Z,12.53
2019-01-13T20:36:23.778Z,23.63
2019-01-13T20:41:42.244Z,20.77
2019-01-13T20:47:00.984Z,18.57
2019-01-13T20:52:19.559Z,22.20
2019-01-13T20:57:38.166Z,20.50
2019-01-13T21:02:57.108Z,31.20
2019-01-13T21:08:18.988Z,24.43
2019-01-13T21:13:40.097Z,11.17
2019-01-13T21:18:58.789Z,11.37
2019-01-13T21:24:17.383Z,11.37
2019-01-13T21:29:36.025Z,14.98
2019-01-13T21:34:54.610Z,14.00
2019-01-13T21:40:53.184Z,9.83
2019-01-13T21:46:11.715Z,7.10
2019-01-13T21:51:30.183Z,7.90
2019-01-13T21:56:48.639Z,7.55
2019-01-13T22:02:07.256Z,12.07
2019-01-13T22:07:25.868Z,9.10
2019-01-13T22:12:44.480Z,9.40
2019-01-13T22:18:03.070Z,12.03
2019-01-13T22:23:21.797Z,12.70
2019-01-13T22:28:40.326Z,17.53
2019-01-13T22:33:58.803Z,19.13
2019-01-13T22:39:17.274Z,20.83
2019-01-13T22:44:35.869Z,15.77
2019-01-13T22:49:54.371Z,19.27
2019-01-13T22:55:12.982Z,12.43
2019-01-13T23:01:11.365Z,24.77
2019-01-13T23:06:29.841Z,25.03
2019-01-13T23:11:48.455Z,16.13
2019-01-13T23:17:07.260Z,24.15
2019-01-13T23:22:25.876Z,25.77
2019-01-13T23:27:44.398Z,26.67
2019-01-13T23:38:33.441Z,16.47
2019-01-13T23:43:51.990Z,16.87
2019-01-13T23:54:42.600Z,16.40
